sensor_id;sensor_type;location;lat;lon;timestamp;pressure;altitude;pressure_sealevel;temperature
20092;BMP180;10205;49.678;6.560;2024-03-08T00:00:00;99788.00;;;10.40
20092;BMP180;10205;49.678;6.560;2024-03-08T00:02:36;99787.00;;;10.40
20092;BMP180;10205;49.678;6.560;2024-03-08T00:05:05;99786.00;;;10.40
20092;BMP180;10205;49.678;6.560;2024-03-08T00:07:32;99782.00;;;10.30
20092;BMP180;10205;49.678;6.560;2024-03-08T00:09:59;99788.00;;;10.30
20092;BMP180;10205;49.678;6.560;2024-03-08T00:12:28;99770.00;;;10.20
20092;BMP180;10205;49.678;6.560;2024-03-08T00:14:55;99773.00;;;10.20
20092;BMP180;10205;49.678;6.560;2024-03-08T00:17:22;99773.00;;;10.20
20092;BMP180;10205;49.678;6.560;2024-03-08T00:19:51;99774.00;;;10.10
20092;BMP180;10205;49.678;6.560;2024-03-08T00:22:18;99775.00;;;10.10
20092;BMP180;10205;49.678;6.560;2024-03-08T00:24:45;99773.00;;;10.10
20092;BMP180;10205;49.678;6.560;2024-03-08T00:27:12;99764.00;;;10.10
20092;BMP180;10205;49.678;6.560;2024-03-08T00:29:42;99774.00;;;10.00
20092;BMP180;10205;49.678;6.560;2024-03-08T00:32:11;99769.00;;;10.00
20092;BMP180;10205;49.678;6.560;2024-03-08T00:34:38;99771.00;;;10.00
20092;BMP180;10205;49.678;6.560;2024-03-08T00:37:05;99767.00;;;10.00
20092;BMP180;10205;49.678;6.560;2024-03-08T00:39:32;99754.00;;;9.90
20092;BMP180;10205;49.678;6.560;2024-03-08T00:41:59;99748.00;;;9.90
20092;BMP180;10205;49.678;6.560;2024-03-08T00:44:26;99747.00;;;9.90
20092;BMP180;10205;49.678;6.560;2024-03-08T00:46:55;99744.00;;;9.80
20092;BMP180;10205;49.678;6.560;2024-03-08T00:49:22;99742.00;;;9.80
20092;BMP180;10205;49.678;6.560;2024-03-08T00:51:49;99739.00;;;9.70
20092;BMP180;10205;49.678;6.560;2024-03-08T00:54:16;99737.00;;;9.70
20092;BMP180;10205;49.678;6.560;2024-03-08T00:56:43;99734.00;;;9.60
20092;BMP180;10205;49.678;6.560;2024-03-08T00:59:11;99733.00;;;9.50
20092;BMP180;10205;49.678;6.560;2024-03-08T01:01:40;99726.00;;;9.40
20092;BMP180;10205;49.678;6.560;2024-03-08T01:04:08;99732.00;;;9.30
20092;BMP180;10205;49.678;6.560;2024-03-08T01:06:35;99714.00;;;9.20
20092;BMP180;10205;49.678;6.560;2024-03-08T01:09:02;99713.00;;;9.10
20092;BMP180;10205;49.678;6.560;2024-03-08T01:11:33;99719.00;;;8.90
20092;BMP180;10205;49.678;6.560;2024-03-08T01:14:00;99709.00;;;8.90
20092;BMP180;10205;49.678;6.560;2024-03-08T01:16:27;99711.00;;;8.80
20092;BMP180;10205;49.678;6.560;2024-03-08T01:18:54;99707.00;;;8.80
20092;BMP180;10205;49.678;6.560;2024-03-08T01:21:22;99696.00;;;8.80
20092;BMP180;10205;49.678;6.560;2024-03-08T01:23:49;99700.00;;;8.80
20092;BMP180;10205;49.678;6.560;2024-03-08T01:26:16;99695.00;;;8.70
20092;BMP180;10205;49.678;6.560;2024-03-08T01:28:43;99685.00;;;8.70
20092;BMP180;10205;49.678;6.560;2024-03-08T01:31:10;99697.00;;;8.70
20092;BMP180;10205;49.678;6.560;2024-03-08T01:33:38;99685.00;;;8.70
20092;BMP180;10205;49.678;6.560;2024-03-08T01:36:06;99680.00;;;8.60
20092;BMP180;10205;49.678;6.560;2024-03-08T01:38:35;99678.00;;;8.50
20092;BMP180;10205;49.678;6.560;2024-03-08T01:41:02;99675.00;;;8.50
20092;BMP180;10205;49.678;6.560;2024-03-08T01:43:29;99673.00;;;8.50
20092;BMP180;10205;49.678;6.560;2024-03-08T01:45:58;99662.00;;;8.50
20092;BMP180;10205;49.678;6.560;2024-03-08T01:48:26;99665.00;;;8.50
20092;BMP180;10205;49.678;6.560;2024-03-08T01:50:56;99663.00;;;8.50
20092;BMP180;10205;49.678;6.560;2024-03-08T01:53:24;99655.00;;;8.50
20092;BMP180;10205;49.678;6.560;2024-03-08T01:55:57;99676.00;;;8.50
20092;BMP180;10205;49.678;6.560;2024-03-08T01:58:27;99655.00;;;8.50
20092;BMP180;10205;49.678;6.560;2024-03-08T02:00:56;99655.00;;;8.50
20092;BMP180;10205;49.678;6.560;2024-03-08T02:03:24;99649.00;;;8.40
20092;BMP180;10205;49.678;6.560;2024-03-08T02:05:51;99638.00;;;8.30
20092;BMP180;10205;49.678;6.560;2024-03-08T02:08:19;99655.00;;;8.30
20092;BMP180;10205;49.678;6.560;2024-03-08T02:10:48;99648.00;;;8.30
20092;BMP180;10205;49.678;6.560;2024-03-08T02:13:17;99640.00;;;8.30
20092;BMP180;10205;49.678;6.560;2024-03-08T02:16:01;99648.00;;;8.20
20092;BMP180;10205;49.678;6.560;2024-03-08T02:18:34;99635.00;;;8.20
20092;BMP180;10205;49.678;6.560;2024-03-08T02:21:04;99628.00;;;8.20
20092;BMP180;10205;49.678;6.560;2024-03-08T02:23:32;99633.00;;;8.20
20092;BMP180;10205;49.678;6.560;2024-03-08T02:26:00;99620.00;;;8.30
20092;BMP180;10205;49.678;6.560;2024-03-08T02:28:27;99618.00;;;8.30
20092;BMP180;10205;49.678;6.560;2024-03-08T02:30:54;99612.00;;;8.30
20092;BMP180;10205;49.678;6.560;2024-03-08T02:33:23;99615.00;;;8.30
20092;BMP180;10205;49.678;6.560;2024-03-08T02:35:50;99618.00;;;8.30
20092;BMP180;10205;49.678;6.560;2024-03-08T02:38:21;99614.00;;;8.30
20092;BMP180;10205;49.678;6.560;2024-03-08T02:40:51;99604.00;;;8.30
20092;BMP180;10205;49.678;6.560;2024-03-08T02:43:21;99601.00;;;8.30
20092;BMP180;10205;49.678;6.560;2024-03-08T02:45:50;99617.00;;;8.20
20092;BMP180;10205;49.678;6.560;2024-03-08T02:48:18;99602.00;;;8.20
20092;BMP180;10205;49.678;6.560;2024-03-08T02:50:46;99596.00;;;8.20
20092;BMP180;10205;49.678;6.560;2024-03-08T02:53:14;99598.00;;;8.20
20092;BMP180;10205;49.678;6.560;2024-03-08T02:55:42;99593.00;;;8.30
20092;BMP180;10205;49.678;6.560;2024-03-08T02:58:10;99588.00;;;8.30
20092;BMP180;10205;49.678;6.560;2024-03-08T03:00:38;99586.00;;;8.30
20092;BMP180;10205;49.678;6.560;2024-03-08T03:03:06;99584.00;;;8.30
20092;BMP180;10205;49.678;6.560;2024-03-08T03:05:34;99583.00;;;8.30
20092;BMP180;10205;49.678;6.560;2024-03-08T03:08:01;99593.00;;;8.30
20092;BMP180;10205;49.678;6.560;2024-03-08T03:10:29;99584.00;;;8.30
20092;BMP180;10205;49.678;6.560;2024-03-08T03:12:58;99586.00;;;8.30
20092;BMP180;10205;49.678;6.560;2024-03-08T03:15:25;99587.00;;;8.30
20092;BMP180;10205;49.678;6.560;2024-03-08T03:17:52;99582.00;;;8.20
20092;BMP180;10205;49.678;6.560;2024-03-08T03:20:19;99581.00;;;8.20
20092;BMP180;10205;49.678;6.560;2024-03-08T03:22:52;99585.00;;;8.20
20092;BMP180;10205;49.678;6.560;2024-03-08T03:25:19;99579.00;;;8.10
20092;BMP180;10205;49.678;6.560;2024-03-08T03:27:52;99578.00;;;8.20
20092;BMP180;10205;49.678;6.560;2024-03-08T03:30:23;99572.00;;;8.20
20092;BMP180;10205;49.678;6.560;2024-03-08T03:32:53;99565.00;;;8.10
20092;BMP180;10205;49.678;6.560;2024-03-08T03:35:22;99569.00;;;8.10
20092;BMP180;10205;49.678;6.560;2024-03-08T03:37:50;99567.00;;;8.10
20092;BMP180;10205;49.678;6.560;2024-03-08T03:40:27;99567.00;;;8.10
20092;BMP180;10205;49.678;6.560;2024-03-08T03:42:54;99563.00;;;8.10
20092;BMP180;10205;49.678;6.560;2024-03-08T03:45:23;99560.00;;;8.10
20092;BMP180;10205;49.678;6.560;2024-03-08T03:47:50;99560.00;;;8.10
20092;BMP180;10205;49.678;6.560;2024-03-08T03:50:18;99554.00;;;8.10
20092;BMP180;10205;49.678;6.560;2024-03-08T03:52:45;99573.00;;;8.10
20092;BMP180;10205;49.678;6.560;2024-03-08T03:55:13;99556.00;;;8.10
20092;BMP180;10205;49.678;6.560;2024-03-08T03:57:40;99561.00;;;8.10
20092;BMP180;10205;49.678;6.560;2024-03-08T04:00:08;99561.00;;;8.10
20092;BMP180;10205;49.678;6.560;2024-03-08T04:02:38;99554.00;;;8.00
20092;BMP180;10205;49.678;6.560;2024-03-08T04:05:07;99550.00;;;8.00
20092;BMP180;10205;49.678;6.560;2024-03-08T04:07:34;99545.00;;;7.90
20092;BMP180;10205;49.678;6.560;2024-03-08T04:10:01;99552.00;;;7.90
20092;BMP180;10205;49.678;6.560;2024-03-08T04:12:28;99550.00;;;7.90
20092;BMP180;10205;49.678;6.560;2024-03-08T04:14:56;99548.00;;;7.80
20092;BMP180;10205;49.678;6.560;2024-03-08T04:17:23;99550.00;;;7.70
20092;BMP180;10205;49.678;6.560;2024-03-08T04:19:52;99568.00;;;7.70
20092;BMP180;10205;49.678;6.560;2024-03-08T04:22:20;99556.00;;;7.60
20092;BMP180;10205;49.678;6.560;2024-03-08T04:24:47;99544.00;;;7.70
20092;BMP180;10205;49.678;6.560;2024-03-08T04:27:14;99540.00;;;7.70
20092;BMP180;10205;49.678;6.560;2024-03-08T04:29:41;99542.00;;;7.70
20092;BMP180;10205;49.678;6.560;2024-03-08T04:32:09;99536.00;;;7.70
20092;BMP180;10205;49.678;6.560;2024-03-08T04:34:39;99536.00;;;7.70
20092;BMP180;10205;49.678;6.560;2024-03-08T04:37:08;99543.00;;;7.70
20092;BMP180;10205;49.678;6.560;2024-03-08T04:39:36;99542.00;;;7.60
20092;BMP180;10205;49.678;6.560;2024-03-08T04:42:05;99538.00;;;7.60
20092;BMP180;10205;49.678;6.560;2024-03-08T04:44:36;99560.00;;;7.60
20092;BMP180;10205;49.678;6.560;2024-03-08T04:47:04;99548.00;;;7.60
20092;BMP180;10205;49.678;6.560;2024-03-08T04:49:32;99539.00;;;7.70
20092;BMP180;10205;49.678;6.560;2024-03-08T04:52:01;99540.00;;;7.60
20092;BMP180;10205;49.678;6.560;2024-03-08T04:54:30;99534.00;;;7.60
20092;BMP180;10205;49.678;6.560;2024-03-08T04:56:58;99539.00;;;7.60
20092;BMP180;10205;49.678;6.560;2024-03-08T04:59:25;99550.00;;;7.60
20092;BMP180;10205;49.678;6.560;2024-03-08T05:01:52;99522.00;;;7.60
20092;BMP180;10205;49.678;6.560;2024-03-08T05:04:20;99525.00;;;7.60
20092;BMP180;10205;49.678;6.560;2024-03-08T05:06:47;99525.00;;;7.60
20092;BMP180;10205;49.678;6.560;2024-03-08T05:09:14;99518.00;;;7.60
20092;BMP180;10205;49.678;6.560;2024-03-08T05:11:44;99527.00;;;7.60
20092;BMP180;10205;49.678;6.560;2024-03-08T05:14:11;99515.00;;;7.60
20092;BMP180;10205;49.678;6.560;2024-03-08T05:16:41;99516.00;;;7.50
20092;BMP180;10205;49.678;6.560;2024-03-08T05:19:08;99518.00;;;7.50
20092;BMP180;10205;49.678;6.560;2024-03-08T05:21:35;99508.00;;;7.50
20092;BMP180;10205;49.678;6.560;2024-03-08T05:24:03;99508.00;;;7.40
20092;BMP180;10205;49.678;6.560;2024-03-08T05:26:31;99513.00;;;7.40
20092;BMP180;10205;49.678;6.560;2024-03-08T05:29:00;99510.00;;;7.40
20092;BMP180;10205;49.678;6.560;2024-03-08T05:31:27;99511.00;;;7.30
20092;BMP180;10205;49.678;6.560;2024-03-08T05:33:54;99513.00;;;7.20
20092;BMP180;10205;49.678;6.560;2024-03-08T05:36:22;99504.00;;;7.20
20092;BMP180;10205;49.678;6.560;2024-03-08T05:38:49;99506.00;;;7.10
20092;BMP180;10205;49.678;6.560;2024-03-08T05:41:16;99507.00;;;7.10
20092;BMP180;10205;49.678;6.560;2024-03-08T05:43:44;99511.00;;;7.00
20092;BMP180;10205;49.678;6.560;2024-03-08T05:46:15;99512.00;;;7.00
20092;BMP180;10205;49.678;6.560;2024-03-08T05:48:44;99499.00;;;6.90
20092;BMP180;10205;49.678;6.560;2024-03-08T05:51:11;99512.00;;;6.80
20092;BMP180;10205;49.678;6.560;2024-03-08T05:53:38;99503.00;;;6.80
20092;BMP180;10205;49.678;6.560;2024-03-08T05:56:06;99505.00;;;6.80
20092;BMP180;10205;49.678;6.560;2024-03-08T05:58:35;99498.00;;;6.80
20092;BMP180;10205;49.678;6.560;2024-03-08T06:01:02;99504.00;;;6.80
20092;BMP180;10205;49.678;6.560;2024-03-08T06:03:34;99501.00;;;6.80
20092;BMP180;10205;49.678;6.560;2024-03-08T06:06:01;99496.00;;;6.70
20092;BMP180;10205;49.678;6.560;2024-03-08T06:08:29;99497.00;;;6.70
20092;BMP180;10205;49.678;6.560;2024-03-08T06:10:56;99494.00;;;6.70
20092;BMP180;10205;49.678;6.560;2024-03-08T06:13:24;99497.00;;;6.70
20092;BMP180;10205;49.678;6.560;2024-03-08T06:15:51;99499.00;;;6.70
20092;BMP180;10205;49.678;6.560;2024-03-08T06:18:18;99492.00;;;6.60
20092;BMP180;10205;49.678;6.560;2024-03-08T06:20:47;99496.00;;;6.50
20092;BMP180;10205;49.678;6.560;2024-03-08T06:23:14;99494.00;;;6.50
20092;BMP180;10205;49.678;6.560;2024-03-08T06:25:43;99490.00;;;6.50
20092;BMP180;10205;49.678;6.560;2024-03-08T06:28:10;99483.00;;;6.50
20092;BMP180;10205;49.678;6.560;2024-03-08T06:30:37;99482.00;;;6.50
20092;BMP180;10205;49.678;6.560;2024-03-08T06:33:04;99487.00;;;6.50
20092;BMP180;10205;49.678;6.560;2024-03-08T06:35:32;99476.00;;;6.60
20092;BMP180;10205;49.678;6.560;2024-03-08T06:38:04;99479.00;;;6.60
20092;BMP180;10205;49.678;6.560;2024-03-08T06:40:32;99483.00;;;6.60
20092;BMP180;10205;49.678;6.560;2024-03-08T06:42:59;99475.00;;;6.50
20092;BMP180;10205;49.678;6.560;2024-03-08T06:45:26;99481.00;;;6.50
20092;BMP180;10205;49.678;6.560;2024-03-08T06:47:54;99474.00;;;6.50
20092;BMP180;10205;49.678;6.560;2024-03-08T06:50:21;99484.00;;;6.50
20092;BMP180;10205;49.678;6.560;2024-03-08T06:52:49;99481.00;;;6.50
20092;BMP180;10205;49.678;6.560;2024-03-08T06:55:20;99481.00;;;6.50
20092;BMP180;10205;49.678;6.560;2024-03-08T06:57:47;99478.00;;;6.50
20092;BMP180;10205;49.678;6.560;2024-03-08T07:00:15;99477.00;;;6.50
20092;BMP180;10205;49.678;6.560;2024-03-08T07:02:46;99486.00;;;6.50
20092;BMP180;10205;49.678;6.560;2024-03-08T07:05:14;99475.00;;;6.50
20092;BMP180;10205;49.678;6.560;2024-03-08T07:07:42;99477.00;;;6.50
20092;BMP180;10205;49.678;6.560;2024-03-08T07:10:09;99481.00;;;6.50
20092;BMP180;10205;49.678;6.560;2024-03-08T07:12:39;99481.00;;;6.50
20092;BMP180;10205;49.678;6.560;2024-03-08T07:15:07;99475.00;;;6.50
20092;BMP180;10205;49.678;6.560;2024-03-08T07:17:39;99469.00;;;6.40
20092;BMP180;10205;49.678;6.560;2024-03-08T07:20:07;99460.00;;;6.40
20092;BMP180;10205;49.678;6.560;2024-03-08T07:22:37;99465.00;;;6.40
20092;BMP180;10205;49.678;6.560;2024-03-08T07:25:05;99463.00;;;6.40
20092;BMP180;10205;49.678;6.560;2024-03-08T07:27:47;99470.00;;;6.40
20092;BMP180;10205;49.678;6.560;2024-03-08T07:30:15;99476.00;;;6.40
20092;BMP180;10205;49.678;6.560;2024-03-08T07:33:04;99461.00;;;6.50
20092;BMP180;10205;49.678;6.560;2024-03-08T07:35:33;99479.00;;;6.50
20092;BMP180;10205;49.678;6.560;2024-03-08T07:38:03;99463.00;;;6.50
20092;BMP180;10205;49.678;6.560;2024-03-08T07:40:31;99476.00;;;6.50
20092;BMP180;10205;49.678;6.560;2024-03-08T07:43:00;99458.00;;;6.60
20092;BMP180;10205;49.678;6.560;2024-03-08T07:45:28;99447.00;;;6.60
20092;BMP180;10205;49.678;6.560;2024-03-08T07:47:56;99446.00;;;6.60
20092;BMP180;10205;49.678;6.560;2024-03-08T07:50:23;99454.00;;;6.60
20092;BMP180;10205;49.678;6.560;2024-03-08T07:52:50;99442.00;;;6.60
20092;BMP180;10205;49.678;6.560;2024-03-08T07:55:17;99453.00;;;6.60
20092;BMP180;10205;49.678;6.560;2024-03-08T07:57:44;99434.00;;;6.70
20092;BMP180;10205;49.678;6.560;2024-03-08T08:00:16;99437.00;;;6.70
20092;BMP180;10205;49.678;6.560;2024-03-08T08:02:44;99434.00;;;6.70
20092;BMP180;10205;49.678;6.560;2024-03-08T08:05:12;99438.00;;;6.80
20092;BMP180;10205;49.678;6.560;2024-03-08T08:07:39;99432.00;;;6.80
20092;BMP180;10205;49.678;6.560;2024-03-08T08:10:09;99429.00;;;6.80
20092;BMP180;10205;49.678;6.560;2024-03-08T08:12:42;99426.00;;;6.80
20092;BMP180;10205;49.678;6.560;2024-03-08T08:15:10;99423.00;;;6.90
20092;BMP180;10205;49.678;6.560;2024-03-08T08:17:38;99417.00;;;6.90
20092;BMP180;10205;49.678;6.560;2024-03-08T08:20:06;99426.00;;;7.00
20092;BMP180;10205;49.678;6.560;2024-03-08T08:22:33;99419.00;;;7.00
20092;BMP180;10205;49.678;6.560;2024-03-08T08:25:00;99410.00;;;7.10
20092;BMP180;10205;49.678;6.560;2024-03-08T08:27:28;99410.00;;;7.10
20092;BMP180;10205;49.678;6.560;2024-03-08T08:29:55;99411.00;;;7.20
20092;BMP180;10205;49.678;6.560;2024-03-08T08:32:23;99415.00;;;7.30
20092;BMP180;10205;49.678;6.560;2024-03-08T08:34:51;99403.00;;;7.30
20092;BMP180;10205;49.678;6.560;2024-03-08T08:37:18;99411.00;;;7.40
20092;BMP180;10205;49.678;6.560;2024-03-08T08:39:45;99402.00;;;7.50
20092;BMP180;10205;49.678;6.560;2024-03-08T08:42:12;99396.00;;;7.50
20092;BMP180;10205;49.678;6.560;2024-03-08T08:44:39;99393.00;;;7.60
20092;BMP180;10205;49.678;6.560;2024-03-08T08:47:06;99404.00;;;7.70
20092;BMP180;10205;49.678;6.560;2024-03-08T08:49:33;99413.00;;;7.70
20092;BMP180;10205;49.678;6.560;2024-03-08T08:52:03;99392.00;;;7.80
20092;BMP180;10205;49.678;6.560;2024-03-08T08:54:31;99405.00;;;7.80
20092;BMP180;10205;49.678;6.560;2024-03-08T08:56:58;99390.00;;;7.90
20092;BMP180;10205;49.678;6.560;2024-03-08T08:59:25;99387.00;;;8.00
20092;BMP180;10205;49.678;6.560;2024-03-08T09:01:52;99380.00;;;8.10
20092;BMP180;10205;49.678;6.560;2024-03-08T09:04:20;99378.00;;;8.10
20092;BMP180;10205;49.678;6.560;2024-03-08T09:06:48;99375.00;;;8.20
20092;BMP180;10205;49.678;6.560;2024-03-08T09:09:17;99373.00;;;8.20
20092;BMP180;10205;49.678;6.560;2024-03-08T09:11:44;99389.00;;;8.30
20092;BMP180;10205;49.678;6.560;2024-03-08T09:14:12;99366.00;;;8.40
20092;BMP180;10205;49.678;6.560;2024-03-08T09:16:39;99366.00;;;8.50
20092;BMP180;10205;49.678;6.560;2024-03-08T09:19:07;99362.00;;;8.60
20092;BMP180;10205;49.678;6.560;2024-03-08T09:21:36;99352.00;;;8.70
20092;BMP180;10205;49.678;6.560;2024-03-08T09:24:06;99355.00;;;8.80
20092;BMP180;10205;49.678;6.560;2024-03-08T09:26:34;99357.00;;;8.80
20092;BMP180;10205;49.678;6.560;2024-03-08T09:29:02;99363.00;;;9.00
20092;BMP180;10205;49.678;6.560;2024-03-08T09:31:31;99349.00;;;9.00
20092;BMP180;10205;49.678;6.560;2024-03-08T09:33:58;99335.00;;;9.10
20092;BMP180;10205;49.678;6.560;2024-03-08T09:36:25;99342.00;;;9.20
20092;BMP180;10205;49.678;6.560;2024-03-08T09:38:53;99342.00;;;9.30
20092;BMP180;10205;49.678;6.560;2024-03-08T09:41:20;99333.00;;;9.40
20092;BMP180;10205;49.678;6.560;2024-03-08T09:43:48;99315.00;;;9.50
20092;BMP180;10205;49.678;6.560;2024-03-08T09:46:16;99330.00;;;9.60
20092;BMP180;10205;49.678;6.560;2024-03-08T09:48:45;99325.00;;;9.70
20092;BMP180;10205;49.678;6.560;2024-03-08T09:51:13;99319.00;;;9.80
20092;BMP180;10205;49.678;6.560;2024-03-08T09:53:41;99319.00;;;9.90
20092;BMP180;10205;49.678;6.560;2024-03-08T09:56:08;99312.00;;;10.00
20092;BMP180;10205;49.678;6.560;2024-03-08T09:58:38;99320.00;;;10.10
20092;BMP180;10205;49.678;6.560;2024-03-08T10:01:21;99304.00;;;10.20
20092;BMP180;10205;49.678;6.560;2024-03-08T10:03:47;99294.00;;;10.30
20092;BMP180;10205;49.678;6.560;2024-03-08T10:06:16;99306.00;;;10.40
20092;BMP180;10205;49.678;6.560;2024-03-08T10:08:44;99289.00;;;10.40
20092;BMP180;10205;49.678;6.560;2024-03-08T10:11:11;99311.00;;;10.50
20092;BMP180;10205;49.678;6.560;2024-03-08T10:13:39;99284.00;;;10.60
20092;BMP180;10205;49.678;6.560;2024-03-08T10:16:07;99290.00;;;10.70
20092;BMP180;10205;49.678;6.560;2024-03-08T10:18:36;99281.00;;;10.80
20092;BMP180;10205;49.678;6.560;2024-03-08T10:21:05;99281.00;;;10.80
20092;BMP180;10205;49.678;6.560;2024-03-08T10:23:34;99281.00;;;10.90
20092;BMP180;10205;49.678;6.560;2024-03-08T10:26:11;99287.00;;;11.00
20092;BMP180;10205;49.678;6.560;2024-03-08T10:28:41;99272.00;;;11.10
20092;BMP180;10205;49.678;6.560;2024-03-08T10:31:08;99279.00;;;11.20
20092;BMP180;10205;49.678;6.560;2024-03-08T10:33:37;99263.00;;;11.20
20092;BMP180;10205;49.678;6.560;2024-03-08T10:36:07;99267.00;;;11.30
20092;BMP180;10205;49.678;6.560;2024-03-08T10:38:37;99267.00;;;11.40
20092;BMP180;10205;49.678;6.560;2024-03-08T10:41:06;99268.00;;;11.50
20092;BMP180;10205;49.678;6.560;2024-03-08T10:44:02;99266.00;;;11.60
20092;BMP180;10205;49.678;6.560;2024-03-08T10:46:50;99264.00;;;11.70
20092;BMP180;10205;49.678;6.560;2024-03-08T10:49:30;99259.00;;;11.80
20092;BMP180;10205;49.678;6.560;2024-03-08T10:52:03;99260.00;;;11.80
20092;BMP180;10205;49.678;6.560;2024-03-08T10:54:33;99260.00;;;11.90
20092;BMP180;10205;49.678;6.560;2024-03-08T10:57:03;99253.00;;;12.00
20092;BMP180;10205;49.678;6.560;2024-03-08T10:59:32;99260.00;;;12.10
20092;BMP180;10205;49.678;6.560;2024-03-08T11:02:00;99242.00;;;12.10
20092;BMP180;10205;49.678;6.560;2024-03-08T11:04:30;99241.00;;;12.10
20092;BMP180;10205;49.678;6.560;2024-03-08T11:07:02;99237.00;;;12.20
20092;BMP180;10205;49.678;6.560;2024-03-08T11:09:34;99233.00;;;12.30
20092;BMP180;10205;49.678;6.560;2024-03-08T11:12:23;99240.00;;;12.40
20092;BMP180;10205;49.678;6.560;2024-03-08T11:14:53;99228.00;;;12.50
20092;BMP180;10205;49.678;6.560;2024-03-08T11:17:26;99229.00;;;12.50
20092;BMP180;10205;49.678;6.560;2024-03-08T11:19:56;99221.00;;;12.60
20092;BMP180;10205;49.678;6.560;2024-03-08T11:22:29;99219.00;;;12.60
20092;BMP180;10205;49.678;6.560;2024-03-08T11:24:59;99221.00;;;12.70
20092;BMP180;10205;49.678;6.560;2024-03-08T11:27:31;99214.00;;;12.80
20092;BMP180;10205;49.678;6.560;2024-03-08T11:30:04;99223.00;;;12.90
20092;BMP180;10205;49.678;6.560;2024-03-08T11:32:38;99221.00;;;12.90
20092;BMP180;10205;49.678;6.560;2024-03-08T11:35:19;99209.00;;;13.00
20092;BMP180;10205;49.678;6.560;2024-03-08T11:37:46;99218.00;;;13.10
20092;BMP180;10205;49.678;6.560;2024-03-08T11:40:15;99194.00;;;13.20
20092;BMP180;10205;49.678;6.560;2024-03-08T11:42:45;99192.00;;;13.30
20092;BMP180;10205;49.678;6.560;2024-03-08T11:45:13;99191.00;;;13.40
20092;BMP180;10205;49.678;6.560;2024-03-08T11:47:42;99192.00;;;13.40
20092;BMP180;10205;49.678;6.560;2024-03-08T11:50:14;99191.00;;;13.50
20092;BMP180;10205;49.678;6.560;2024-03-08T11:52:43;99188.00;;;13.60
20092;BMP180;10205;49.678;6.560;2024-03-08T11:55:11;99189.00;;;13.60
20092;BMP180;10205;49.678;6.560;2024-03-08T11:57:39;99190.00;;;13.60
20092;BMP180;10205;49.678;6.560;2024-03-08T12:00:16;99172.00;;;13.60
20092;BMP180;10205;49.678;6.560;2024-03-08T12:03:02;99171.00;;;13.70
20092;BMP180;10205;49.678;6.560;2024-03-08T12:05:30;99161.00;;;13.70
20092;BMP180;10205;49.678;6.560;2024-03-08T12:07:59;99163.00;;;13.70
20092;BMP180;10205;49.678;6.560;2024-03-08T12:10:27;99138.00;;;13.80
20092;BMP180;10205;49.678;6.560;2024-03-08T12:12:57;99142.00;;;13.80
20092;BMP180;10205;49.678;6.560;2024-03-08T12:15:25;99135.00;;;13.90
20092;BMP180;10205;49.678;6.560;2024-03-08T12:17:54;99127.00;;;13.90
20092;BMP180;10205;49.678;6.560;2024-03-08T12:20:25;99130.00;;;13.90
20092;BMP180;10205;49.678;6.560;2024-03-08T12:22:54;99116.00;;;14.00
20092;BMP180;10205;49.678;6.560;2024-03-08T12:25:22;99120.00;;;14.00
20092;BMP180;10205;49.678;6.560;2024-03-08T12:27:53;99096.00;;;14.10
20092;BMP180;10205;49.678;6.560;2024-03-08T12:30:24;99099.00;;;14.20
20092;BMP180;10205;49.678;6.560;2024-03-08T12:32:55;99092.00;;;14.20
20092;BMP180;10205;49.678;6.560;2024-03-08T12:35:25;99092.00;;;14.30
20092;BMP180;10205;49.678;6.560;2024-03-08T12:37:55;99087.00;;;14.30
20092;BMP180;10205;49.678;6.560;2024-03-08T12:40:27;99072.00;;;14.30
20092;BMP180;10205;49.678;6.560;2024-03-08T12:42:55;99074.00;;;14.30
20092;BMP180;10205;49.678;6.560;2024-03-08T12:45:22;99077.00;;;14.40
20092;BMP180;10205;49.678;6.560;2024-03-08T12:47:50;99069.00;;;14.40
20092;BMP180;10205;49.678;6.560;2024-03-08T12:50:19;99064.00;;;14.40
20092;BMP180;10205;49.678;6.560;2024-03-08T12:52:46;99066.00;;;14.50
20092;BMP180;10205;49.678;6.560;2024-03-08T12:55:15;99054.00;;;14.50
20092;BMP180;10205;49.678;6.560;2024-03-08T12:57:44;99063.00;;;14.60
20092;BMP180;10205;49.678;6.560;2024-03-08T13:00:13;99052.00;;;14.60
20092;BMP180;10205;49.678;6.560;2024-03-08T13:02:44;99052.00;;;14.70
20092;BMP180;10205;49.678;6.560;2024-03-08T13:05:12;99051.00;;;14.70
20092;BMP180;10205;49.678;6.560;2024-03-08T13:07:40;99054.00;;;14.70
20092;BMP180;10205;49.678;6.560;2024-03-08T13:10:12;99029.00;;;14.80
20092;BMP180;10205;49.678;6.560;2024-03-08T13:12:42;99033.00;;;14.70
20092;BMP180;10205;49.678;6.560;2024-03-08T13:15:09;99035.00;;;14.70
20092;BMP180;10205;49.678;6.560;2024-03-08T13:17:41;99037.00;;;14.80
20092;BMP180;10205;49.678;6.560;2024-03-08T13:20:09;99018.00;;;14.80
20092;BMP180;10205;49.678;6.560;2024-03-08T13:22:42;99025.00;;;14.80
20092;BMP180;10205;49.678;6.560;2024-03-08T13:25:09;99013.00;;;14.70
20092;BMP180;10205;49.678;6.560;2024-03-08T13:27:39;99007.00;;;14.70
20092;BMP180;10205;49.678;6.560;2024-03-08T13:30:10;99007.00;;;14.70
20092;BMP180;10205;49.678;6.560;2024-03-08T13:32:39;99008.00;;;14.70
20092;BMP180;10205;49.678;6.560;2024-03-08T13:35:08;98999.00;;;14.80
20092;BMP180;10205;49.678;6.560;2024-03-08T13:37:39;98987.00;;;14.80
20092;BMP180;10205;49.678;6.560;2024-03-08T13:40:09;98993.00;;;14.90
20092;BMP180;10205;49.678;6.560;2024-03-08T13:42:40;98983.00;;;14.90
20092;BMP180;10205;49.678;6.560;2024-03-08T13:45:11;98982.00;;;14.90
20092;BMP180;10205;49.678;6.560;2024-03-08T13:47:41;98987.00;;;15.00
20092;BMP180;10205;49.678;6.560;2024-03-08T13:50:11;98973.00;;;15.00
20092;BMP180;10205;49.678;6.560;2024-03-08T13:52:39;98976.00;;;15.00
20092;BMP180;10205;49.678;6.560;2024-03-08T13:55:09;98964.00;;;15.00
20092;BMP180;10205;49.678;6.560;2024-03-08T13:57:42;98970.00;;;15.00
20092;BMP180;10205;49.678;6.560;2024-03-08T14:00:14;98962.00;;;15.00
20092;BMP180;10205;49.678;6.560;2024-03-08T14:02:51;98962.00;;;15.00
20092;BMP180;10205;49.678;6.560;2024-03-08T14:05:20;98958.00;;;15.00
20092;BMP180;10205;49.678;6.560;2024-03-08T14:07:47;98960.00;;;15.00
20092;BMP180;10205;49.678;6.560;2024-03-08T14:10:16;98954.00;;;15.00
20092;BMP180;10205;49.678;6.560;2024-03-08T14:12:46;98942.00;;;15.00
20092;BMP180;10205;49.678;6.560;2024-03-08T14:15:18;98933.00;;;15.00
20092;BMP180;10205;49.678;6.560;2024-03-08T14:17:53;98939.00;;;15.00
20092;BMP180;10205;49.678;6.560;2024-03-08T14:20:23;98947.00;;;15.10
20092;BMP180;10205;49.678;6.560;2024-03-08T14:22:52;98943.00;;;15.10
20092;BMP180;10205;49.678;6.560;2024-03-08T14:25:21;98933.00;;;15.10